Nampa, ID

3:41 PM MST on November 21, 2019 (GMT -0700)
Nampa

Weather History for KMAN - August, 2019

Change the Weather History Date:

Friday, August 23, 2019

  Actual Average (KBOI) Record (KBOI)
Temperature  
Mean Temperature 72 °F -  
Max Temperature 86 °F 86 °F 107 °F (1969)
Min Temperature 57 °F 55 °F 37 °F (1892)
Cooling Degree Days 6    
Growing Degree Days 22 (Base 50)    
Moisture  
Dew Point 44 °F    
Average Humidity 40    
Maximum Humidity 67    
Minimum Humidity 17    
Precipitation  
Precipitation 0.00 in - - ()
Sea Level Pressure  
Sea Level Pressure 29.93 in    
Wind  
Wind Speed 6 mph (WNW)    
Max Wind Speed 10 mph    
Max Gust Speed 12 mph    
Visibility 10 miles    
Events      
Averages and records for this station are not official NWS values.
T = Trace of Precipitation, MM = Missing Value Source: NWS Daily Summary

Daily Weather History Graph

Daily Weather History Graph

Search for Another Location

Airport or City:

Astronomy

Aug. 23, 2019 Rise Set
Actual Time 6:59 AM MDT 8:37 PM MDT
Civil Twilight 6:29 AM MDT 9:07 PM MDT
Nautical Twilight 5:52 AM MDT 9:43 PM MDT
Astronomical Twilight 5:13 AM MDT 10:22 PM MDT
Moon 12:18 AM MDT (8/23) 2:55 PM MDT (8/23)
Length of Visible Light 14h 37m
Length of Day
13h 37m
Waning Gibbous, 49% of the Moon is Illuminated
Aug 23
Waning Gibbous
Aug 30
New
Sep 5
First Quarter
Sep 13
Full
Sep 21
Last Quarter

Hourly Weather History & Observations

Time (MDT) Temp. Dew Point Humidity Pressure Visibility Wind Dir Wind Speed Gust Speed Precip Events Conditions
12:15 AM 69.8 °F 44.6 °F 40% 29.91 in 10.0 mi WNW 9.2 mph - N/A   Unknown
12:35 AM 68.0 °F 44.6 °F 43% 29.91 in 10.0 mi WNW 9.2 mph - N/A   Unknown
12:55 AM 66.2 °F 44.6 °F 46% 29.91 in 10.0 mi WNW 9.2 mph - N/A   Unknown
1:15 AM 66.2 °F 44.6 °F 46% 29.92 in 10.0 mi WNW 8.1 mph - N/A   Unknown
1:35 AM 66.2 °F 46.4 °F 49% 29.92 in 10.0 mi WNW 10.4 mph - N/A   Clear
1:55 AM 66.2 °F 46.4 °F 49% 29.92 in 10.0 mi WNW 9.2 mph - N/A   Unknown
2:15 AM 64.4 °F 46.4 °F 52% 29.92 in 10.0 mi West 9.2 mph - N/A   Unknown
2:35 AM 64.4 °F 46.4 °F 52% 29.93 in 10.0 mi West 8.1 mph - N/A   Unknown
2:55 AM 64.4 °F 46.4 °F 52% 29.93 in 10.0 mi WNW 9.2 mph - N/A   Unknown
3:15 AM 62.6 °F 46.4 °F 55% 29.93 in 10.0 mi West 4.6 mph - N/A   Unknown
3:35 AM 62.6 °F 46.4 °F 55% 29.93 in 10.0 mi WNW 5.8 mph - N/A   Mostly Cloudy
3:55 AM 60.8 °F 46.4 °F 59% 29.93 in 10.0 mi West 8.1 mph - N/A   Mostly Cloudy
4:15 AM 62.6 °F 44.6 °F 52% 29.94 in 10.0 mi West 8.1 mph - N/A   Mostly Cloudy
4:35 AM 60.8 °F 44.6 °F 55% 29.94 in 10.0 mi West 8.1 mph - N/A   Unknown
4:55 AM 60.8 °F 44.6 °F 55% 29.95 in 10.0 mi West 9.2 mph - N/A   Unknown
5:15 AM 60.8 °F 44.6 °F 55% 29.95 in 10.0 mi West 8.1 mph - N/A   Unknown
5:35 AM 60.8 °F 44.6 °F 55% 29.96 in 10.0 mi WNW 8.1 mph - N/A   Unknown
5:55 AM 60.8 °F 42.8 °F 52% 29.95 in 10.0 mi WNW 10.4 mph - N/A   Clear
6:15 AM 60.8 °F 42.8 °F 52% 29.96 in 10.0 mi WNW 8.1 mph - N/A   Clear
6:35 AM 60.8 °F 42.8 °F 52% 29.96 in 10.0 mi NW 4.6 mph - N/A   Clear
6:55 AM 60.8 °F 42.8 °F 52% 29.97 in 10.0 mi WNW 5.8 mph - N/A   Unknown
7:15 AM 60.8 °F 42.8 °F 52% 29.97 in 10.0 mi Calm Calm - N/A   Clear
7:55 AM 57.2 °F 46.4 °F 67% 29.98 in 10.0 mi SE 4.6 mph - N/A   Clear
8:15 AM 59.0 °F 46.4 °F 63% 29.99 in 10.0 mi Calm Calm - N/A   Clear
8:35 AM 60.8 °F 44.6 °F 55% 29.99 in 10.0 mi Calm Calm - N/A   Clear
8:55 AM 64.4 °F 44.6 °F 49% 29.99 in 10.0 mi NNW 4.6 mph - N/A   Clear
9:15 AM 64.4 °F 44.6 °F 49% 29.99 in 10.0 mi Calm Calm - N/A   Clear
9:35 AM 64.4 °F 44.6 °F 49% 30.00 in 10.0 mi Calm Calm - N/A   Clear
9:55 AM 66.2 °F 44.6 °F 46% 30.00 in 10.0 mi Variable 4.6 mph - N/A   Clear
10:15 AM 66.2 °F 46.4 °F 49% 30.00 in 10.0 mi Calm Calm - N/A   Clear
10:35 AM 68.0 °F 46.4 °F 46% 30.00 in 10.0 mi Calm Calm - N/A   Clear
10:55 AM 69.8 °F 46.4 °F 43% 30.00 in 10.0 mi NW 5.8 mph - N/A   Clear
11:15 AM 71.6 °F 46.4 °F 41% 30.00 in 10.0 mi WNW 5.8 mph - N/A   Clear
11:35 AM 73.4 °F 48.2 °F 41% 29.99 in 10.0 mi WNW 5.8 mph - N/A   Clear
11:55 AM 73.4 °F 46.4 °F 38% 29.99 in 10.0 mi WNW 5.8 mph - N/A   Clear
12:15 PM 75.2 °F 48.2 °F 38% 29.99 in 10.0 mi Variable 4.6 mph - N/A   Clear
12:35 PM 75.2 °F 48.2 °F 38% 29.98 in 10.0 mi NNW 4.6 mph - N/A   Clear
12:55 PM 77.0 °F 46.4 °F 34% 29.97 in 10.0 mi Calm Calm - N/A   Clear
1:15 PM 77.0 °F 46.4 °F 34% 29.96 in 9.0 mi Calm Calm - N/A   Clear
1:35 PM 78.8 °F 44.6 °F 30% 29.96 in 8.0 mi SSW 4.6 mph - N/A   Clear
1:55 PM 78.8 °F 42.8 °F 28% 29.95 in 10.0 mi Variable 3.5 mph - N/A   Clear
2:15 PM 80.6 °F 39.2 °F 23% 29.94 in 9.0 mi Variable 3.5 mph - N/A   Clear
2:35 PM 82.4 °F 33.8 °F 17% 29.93 in 9.0 mi Variable 3.5 mph - N/A   Clear
2:55 PM 82.4 °F 37.4 °F 20% 29.93 in 9.0 mi Variable 4.6 mph - N/A   Clear
3:15 PM 84.2 °F 35.6 °F 18% 29.92 in 10.0 mi Calm Calm 11.5 mph N/A   Clear
3:35 PM 84.2 °F 37.4 °F 19% 29.91 in 10.0 mi NW 6.9 mph - N/A   Clear
3:55 PM 84.2 °F 37.4 °F 19% 29.90 in 10.0 mi Calm Calm - N/A   Clear
4:15 PM 84.2 °F 37.4 °F 19% 29.90 in 10.0 mi North 8.1 mph - N/A   Clear
4:35 PM 84.2 °F 37.4 °F 19% 29.89 in 10.0 mi Calm Calm - N/A   Clear
4:55 PM 84.2 °F 37.4 °F 19% 29.89 in 10.0 mi NW 5.8 mph - N/A   Clear
5:15 PM 86.0 °F 37.4 °F 18% 29.88 in 10.0 mi North 6.9 mph - N/A   Clear
5:35 PM 86.0 °F 35.6 °F 17% 29.87 in 10.0 mi Variable 4.6 mph - N/A   Clear
5:55 PM 86.0 °F 37.4 °F 18% 29.88 in 10.0 mi Variable 4.6 mph - N/A   Clear
6:35 PM 86.0 °F 35.6 °F 17% 29.87 in 10.0 mi NNW 6.9 mph - N/A   Clear
6:55 PM 86.0 °F 35.6 °F 17% 29.87 in 10.0 mi NNW 5.8 mph - N/A   Clear
7:15 PM 84.2 °F 37.4 °F 19% 29.86 in 10.0 mi North 4.6 mph - N/A   Clear
7:35 PM 84.2 °F 39.2 °F 20% 29.86 in 10.0 mi North 5.8 mph - N/A   Clear
7:55 PM 82.4 °F 37.4 °F 20% 29.86 in 10.0 mi Calm Calm - N/A   Clear
8:15 PM 80.6 °F 42.8 °F 26% 29.86 in 10.0 mi Calm Calm - N/A   Clear
8:35 PM 77.0 °F 44.6 °F 32% 29.86 in 10.0 mi Calm Calm - N/A   Clear
8:55 PM 75.2 °F 46.4 °F 36% 29.87 in 10.0 mi Calm Calm - N/A   Clear
9:15 PM 73.4 °F 48.2 °F 41% 29.87 in 10.0 mi Calm Calm - N/A   Clear
9:35 PM 71.6 °F 48.2 °F 43% 29.87 in 10.0 mi Calm Calm - N/A   Clear
9:55 PM 71.6 °F 48.2 °F 43% 29.88 in 10.0 mi Calm Calm - N/A   Clear
10:15 PM 69.8 °F 50.0 °F 49% 29.88 in 10.0 mi Calm Calm - N/A   Clear
10:35 PM 69.8 °F 48.2 °F 46% 29.88 in 10.0 mi Calm Calm - N/A   Partly Cloudy
10:55 PM 68.0 °F 50.0 °F 52% 29.88 in 10.0 mi Calm Calm - N/A   Clear
11:15 PM 66.2 °F 50.0 °F 56% 29.87 in 10.0 mi Calm Calm - N/A   Clear
11:35 PM 68.0 °F 48.2 °F 49% 29.87 in 10.0 mi Calm Calm - N/A   Unknown
11:55 PM 68.0 °F 48.2 °F 49% 29.87 in 10.0 mi Calm Calm - N/A   Unknown